SBFZ/FOR METAR and TAF weather

Enter ICAO airport designator
Station Type Date Time Source
SBFZ METAR 2021/02/27 21:00 UTC NOAA

SBFZ 272100Z 07006KT 9999 FEW025 28/23 Q1008


Station Type Date Time Source
SBFZ Decoded METAR 2021/02/27 21:00 UTC NOAA

Fortaleza / pinto Martins , Brazil (SBFZ) 03-47S 038-32W 25M
Feb 27, 2021 - 04:00 PM EST / 2021.02.27 2100 UTC
Wind: from the ENE (070 degrees) at 7 MPH (6 KT):0
Visibility: greater than 7 mile(s):0
Sky conditions: mostly clear
Temperature: 82 F (28 C)
Dew Point: 73 F (23 C)
Relative Humidity: 74%
Pressure (altimeter): 29.77 in. Hg (1008 hPa)
ob: SBFZ 272100Z 07006KT 9999 FEW025 28/23 Q1008
cycle: 21

Station Type Date Time Source
SBFZ TAF 2021/02/27 18:32 UTC NOAA

TAF SBFZ 271530Z 2718/2818 05010KT 9999 BKN025 TN24/2808Z TX30/2818Z
BECMG 2723/2801 07007KT SCT020
BECMG 2806/2808 12007KT PROB40 2809/2812 6000 SHRA BKN015 FEW025TCU
BECMG 2812/2814 09010KT BKN023
BECMG 2815/2817 09015KT SCT027
RMK PGB

Example: see airport list